Time;durP1;ratioP1;P1;durP2;ratioP2;P2;SDS_P1;SDS_P2;PMS_P1;PMS_P2;Temp;Humidity;BMP_temperature;BMP_pressure;BME280_temperature;BME280_humidity;BME280_pressure;Samples;Min_cycle;Max_cycle;Signal;HPM_P1;HPM_P2
2022/12/07 00:01:34;;;;;;;14.55;7.70;;;3.20;74.50;;;;;;4966067;28;115147;-81
2022/12/07 00:04:05;;;;;;;13.48;7.90;;;3.20;74.50;;;;;;4965316;28;114747;-80
2022/12/07 00:06:42;;;;;;;16.65;7.75;;;3.20;74.40;;;;;;4966240;28;114274;-81
2022/12/07 00:09:14;;;;;;;14.35;7.80;;;3.20;74.40;;;;;;4961303;28;114339;-80
2022/12/07 00:11:41;;;;;;;11.95;7.60;;;3.20;74.50;;;;;;4965724;28;115180;-80
2022/12/07 00:14:13;;;;;;;11.82;7.50;;;3.20;74.50;;;;;;4966274;28;114254;-80
2022/12/07 00:16:40;;;;;;;16.13;7.57;;;3.30;74.50;;;;;;4964398;28;114798;-80
2022/12/07 00:19:09;;;;;;;15.38;7.80;;;3.30;74.50;;;;;;4950356;28;115441;-80
2022/12/07 00:21:36;;;;;;;13.27;8.10;;;3.40;74.40;;;;;;4968563;28;115540;-79
2022/12/07 00:24:05;;;;;;;14.50;8.40;;;3.40;74.30;;;;;;4976770;28;114837;-80
2022/12/07 00:26:36;;;;;;;14.27;8.13;;;3.40;74.20;;;;;;4965007;28;116514;-80
2022/12/07 00:29:18;;;;;;;13.27;7.80;;;3.40;74.10;;;;;;4980948;28;114577;-80
2022/12/07 00:31:46;;;;;;;13.15;7.40;;;3.40;74.00;;;;;;4965009;28;115493;-80
2022/12/07 00:34:16;;;;;;;13.65;7.70;;;3.30;74.30;;;;;;4964854;28;114608;-79
2022/12/07 00:36:43;;;;;;;11.82;7.20;;;3.30;74.30;;;;;;4948982;28;114551;-79
2022/12/07 00:39:10;;;;;;;11.25;7.70;;;3.20;74.30;;;;;;4964669;28;119520;-80
2022/12/07 00:41:38;;;;;;;15.13;7.75;;;3.20;74.50;;;;;;4964286;28;115170;-79
2022/12/07 00:44:06;;;;;;;12.48;7.28;;;3.30;74.60;;;;;;4947957;28;118256;-79
2022/12/07 00:46:33;;;;;;;13.77;8.77;;;3.30;74.60;;;;;;4964436;28;114622;-77
2022/12/07 00:49:00;;;;;;;11.13;7.53;;;3.40;74.50;;;;;;4966370;28;114532;-78
2022/12/07 00:51:28;;;;;;;11.45;6.90;;;3.40;74.50;;;;;;4907478;28;116827;-79
2022/12/07 00:54:00;;;;;;;11.30;7.70;;;3.50;74.50;;;;;;4926717;28;114630;-79
2022/12/07 00:56:28;;;;;;;10.15;7.75;;;3.50;74.30;;;;;;4908755;28;114781;-78
2022/12/07 00:59:02;;;;;;;9.80;7.05;;;3.50;74.30;;;;;;4928041;28;114620;-79
2022/12/07 01:01:32;;;;;;;9.75;7.07;;;3.50;74.20;;;;;;4941237;28;115344;-79
2022/12/07 01:04:03;;;;;;;10.70;6.93;;;3.50;74.20;;;;;;4923135;28;114675;-79
2022/12/07 01:06:39;;;;;;;10.65;7.05;;;3.50;74.20;;;;;;4908064;28;114837;-79
2022/12/07 01:09:09;;;;;;;9.93;7.45;;;3.50;74.20;;;;;;4925740;28;114427;-78
2022/12/07 01:11:36;;;;;;;10.23;7.38;;;3.50;74.20;;;;;;4941222;28;118771;-79
2022/12/07 01:14:13;;;;;;;12.27;7.93;;;3.40;74.20;;;;;;4943681;28;114571;-78
2022/12/07 01:16:41;;;;;;;10.88;7.57;;;3.50;74.10;;;;;;4922375;28;114653;-79
2022/12/07 01:19:08;;;;;;;12.75;7.90;;;3.50;74.10;;;;;;4940810;28;115172;-79
2022/12/07 01:21:37;;;;;;;11.80;8.15;;;3.50;74.10;;;;;;4944829;28;115095;-79
2022/12/07 01:24:07;;;;;;;11.65;7.95;;;3.50;74.10;;;;;;4963240;28;116266;-78
2022/12/07 01:26:34;;;;;;;11.45;8.40;;;3.50;74.00;;;;;;4946599;28;114706;-79
2022/12/07 01:29:01;;;;;;;11.30;8.23;;;3.50;74.00;;;;;;4946044;28;115867;-79
2022/12/07 01:31:29;;;;;;;11.35;8.35;;;3.50;74.00;;;;;;4944647;28;115148;-79
2022/12/07 01:33:58;;;;;;;11.98;8.85;;;3.50;74.00;;;;;;4944566;28;115479;-79
2022/12/07 01:36:30;;;;;;;14.50;9.13;;;3.50;74.00;;;;;;4963555;28;114380;-80
2022/12/07 01:39:00;;;;;;;14.90;9.48;;;3.60;74.00;;;;;;4962996;28;115068;-77
2022/12/07 01:41:30;;;;;;;12.75;9.00;;;3.50;74.00;;;;;;4961679;28;115568;-79
2022/12/07 01:44:23;;;;;;;12.88;8.73;;;3.50;74.00;;;;;;4945293;28;114991;-80
2022/12/07 01:47:01;;;;;;;14.63;9.68;;;3.50;74.00;;;;;;4962916;28;114670;-79
2022/12/07 01:49:41;;;;;;;12.50;8.57;;;3.50;74.00;;;;;;4948554;28;114692;-79
2022/12/07 01:52:25;;;;;;;13.48;9.43;;;3.40;73.90;;;;;;4945997;28;115168;-78
2022/12/07 01:55:04;;;;;;;;;;;3.40;74.00;;;;;;4950369;28;116916;-78
2022/12/07 01:57:32;;;;;;;12.82;9.05;;;3.30;74.00;;;;;;4944593;28;114685;-78
2022/12/07 01:59:59;;;;;;;13.30;9.07;;;3.30;74.10;;;;;;4964271;28;114673;-78
2022/12/07 02:02:46;;;;;;;13.65;9.68;;;3.30;74.10;;;;;;4962474;28;116280;-79
2022/12/07 02:05:13;;;;;;;14.57;9.98;;;3.30;74.30;;;;;;4951619;28;116387;-78
2022/12/07 02:07:40;;;;;;;14.35;9.38;;;3.30;74.10;;;;;;4963921;28;114644;-79
2022/12/07 02:10:23;;;;;;;13.45;9.57;;;3.30;74.10;;;;;;4949351;28;114401;-79
2022/12/07 02:13:17;;;;;;;12.75;9.30;;;3.40;74.10;;;;;;4962804;28;116429;-78
2022/12/07 02:16:13;;;;;;;13.98;9.52;;;3.30;74.10;;;;;;4963339;28;115001;-79
2022/12/07 02:19:08;;;;;;;13.25;9.57;;;3.30;74.10;;;;;;4961269;28;114481;-79
2022/12/07 02:22:17;;;;;;;13.98;9.75;;;3.30;74.10;;;;;;4963209;28;114683;-79
2022/12/07 02:25:32;;;;;;;12.90;9.23;;;3.30;74.10;;;;;;4963369;28;115490;-78
2022/12/07 02:28:06;;;;;;;13.07;9.63;;;3.30;74.10;;;;;;4965038;28;114622;-79
2022/12/07 02:30:36;;;;;;;12.52;8.95;;;3.30;74.20;;;;;;4947372;28;114420;-79
2022/12/07 02:33:34;;;;;;;13.75;9.82;;;3.30;74.20;;;;;;4947289;28;114655;-78
2022/12/07 02:36:26;;;;;;;12.35;8.70;;;3.30;74.20;;;;;;4964014;28;118081;-78
2022/12/07 02:39:00;;;;;;;13.43;10.05;;;3.40;74.10;;;;;;4962893;28;115781;-79
2022/12/07 02:41:33;;;;;;;13.02;9.10;;;3.40;74.10;;;;;;4933818;28;114566;-79
2022/12/07 02:44:04;;;;;;;14.40;9.15;;;3.40;74.00;;;;;;4955690;28;115417;-79
2022/12/07 02:47:03;;;;;;;15.63;10.80;;;3.40;74.10;;;;;;4952622;28;115221;-79
2022/12/07 02:49:31;;;;;;;17.08;10.73;;;3.40;74.00;;;;;;4950879;28;114843;-79
2022/12/07 02:51:58;;;;;;;14.07;10.10;;;3.40;74.10;;;;;;4949645;28;114441;-79
2022/12/07 02:54:25;;;;;;;14.73;10.27;;;3.40;74.10;;;;;;4967319;28;114850;-80
2022/12/07 02:57:03;;;;;;;15.95;9.93;;;3.40;74.00;;;;;;4950016;28;115469;-79
2022/12/07 03:00:11;;;;;;;15.52;10.32;;;3.40;74.00;;;;;;4966759;28;114699;-78
2022/12/07 03:02:59;;;;;;;16.25;10.55;;;3.50;74.00;;;;;;4930600;28;114585;-79
2022/12/07 03:05:49;;;;;;;15.45;10.45;;;3.40;73.90;;;;;;4949344;28;114547;-79
2022/12/07 03:08:51;;;;;;;18.10;11.00;;;3.40;73.80;;;;;;4967828;28;116970;-79
2022/12/07 03:11:34;;;;;;;17.33;11.90;;;3.40;73.80;;;;;;4961955;28;114765;-79
2022/12/07 03:14:19;;;;;;;15.57;10.38;;;3.40;73.80;;;;;;4966260;28;114710;-79
2022/12/07 03:16:59;;;;;;;15.40;10.50;;;3.40;73.80;;;;;;4967114;28;114315;-79
2022/12/07 03:19:26;;;;;;;15.93;11.18;;;3.40;73.80;;;;;;4965723;28;115218;-79
2022/12/07 03:22:01;;;;;;;16.58;11.25;;;3.40;73.90;;;;;;4952561;28;117245;-79
2022/12/07 03:24:42;;;;;;;16.90;11.88;;;3.40;73.80;;;;;;4947112;28;115227;-79
2022/12/07 03:27:15;;;;;;;14.43;10.38;;;3.40;73.80;;;;;;4962979;28;114579;-79
2022/12/07 03:30:12;;;;;;;15.65;10.73;;;3.50;73.90;;;;;;4965380;28;115527;-79
2022/12/07 03:32:44;;;;;;;13.98;10.30;;;3.50;73.70;;;;;;4939140;28;117593;-79
2022/12/07 03:35:43;;;;;;;15.32;9.98;;;3.50;73.80;;;;;;4966645;28;114595;-79
2022/12/07 03:38:20;;;;;;;13.95;10.07;;;3.50;73.80;;;;;;4968615;28;115329;-79
2022/12/07 03:41:06;;;;;;;16.70;10.30;;;3.50;73.80;;;;;;4983342;28;115141;-79
2022/12/07 03:43:33;;;;;;;16.70;11.00;;;3.50;73.80;;;;;;4966792;28;114772;-79
2022/12/07 03:46:18;;;;;;;16.98;10.38;;;3.60;73.80;;;;;;4952460;28;114499;-79
2022/12/07 03:48:59;;;;;;;15.13;10.32;;;3.50;73.70;;;;;;4950102;28;114429;-80
2022/12/07 03:51:50;;;;;;;14.55;10.15;;;3.60;73.60;;;;;;4944671;28;115205;-79
2022/12/07 03:54:30;;;;;;;14.05;9.55;;;3.60;73.50;;;;;;4966391;28;114678;-79
2022/12/07 03:56:58;;;;;;;14.32;9.15;;;3.60;73.40;;;;;;4947334;28;117313;-79
2022/12/07 03:59:25;;;;;;;12.55;8.85;;;3.50;73.30;;;;;;4933792;28;114717;-79
2022/12/07 04:01:55;;;;;;;13.05;8.30;;;3.40;73.20;;;;;;4965389;28;115098;-79
2022/12/07 04:04:25;;;;;;;14.20;8.95;;;3.40;73.20;;;;;;4965584;28;114703;-79
2022/12/07 04:06:52;;;;;;;13.80;9.02;;;3.50;73.10;;;;;;4931088;28;114430;-79
2022/12/07 04:09:20;;;;;;;14.07;9.70;;;3.40;73.20;;;;;;4967055;28;114118;-79
2022/12/07 04:11:47;;;;;;;16.42;9.23;;;3.40;73.30;;;;;;4966332;28;115134;-80
2022/12/07 04:14:20;;;;;;;12.07;8.40;;;3.40;73.20;;;;;;4965004;28;114421;-79
2022/12/07 04:16:49;;;;;;;10.23;7.67;;;3.50;73.30;;;;;;4968419;28;114320;-80
2022/12/07 04:19:18;;;;;;;11.77;8.18;;;3.50;73.20;;;;;;4950113;28;114426;-80
2022/12/07 04:21:46;;;;;;;12.70;8.70;;;3.50;73.20;;;;;;4964800;28;114781;-79
2022/12/07 04:24:14;;;;;;;12.20;8.15;;;3.40;73.20;;;;;;4964283;28;114770;-78
2022/12/07 04:26:42;;;;;;;10.80;8.20;;;3.50;73.20;;;;;;4932976;28;116941;-80
2022/12/07 04:29:09;;;;;;;14.43;9.18;;;3.50;73.20;;;;;;4970216;28;114750;-79
2022/12/07 04:31:37;;;;;;;13.77;8.10;;;3.40;73.20;;;;;;4964102;28;115249;-78
2022/12/07 04:34:04;;;;;;;14.70;8.90;;;3.50;73.20;;;;;;4964307;28;115341;-78
2022/12/07 04:36:32;;;;;;;11.88;8.07;;;3.50;73.10;;;;;;4953642;28;114321;-79
2022/12/07 04:38:59;;;;;;;11.23;7.97;;;3.40;73.20;;;;;;4965757;28;114391;-79
2022/12/07 04:41:26;;;;;;;11.85;8.02;;;3.40;73.10;;;;;;4967701;28;115112;-79
2022/12/07 04:44:00;;;;;;;11.18;7.88;;;3.40;73.00;;;;;;4944807;28;114707;-79
2022/12/07 04:46:28;;;;;;;9.90;6.57;;;3.40;72.90;;;;;;4962322;28;114410;-78
2022/12/07 04:48:55;;;;;;;11.60;7.40;;;3.40;73.00;;;;;;4951906;28;114478;-78
2022/12/07 04:51:25;;;;;;;12.05;7.80;;;3.30;73.00;;;;;;4964565;28;115058;-78
2022/12/07 04:53:53;;;;;;;10.20;7.55;;;3.30;73.10;;;;;;4947689;28;114735;-78
2022/12/07 04:56:22;;;;;;;11.02;8.07;;;3.30;73.10;;;;;;4964691;28;114303;-78
2022/12/07 04:58:51;;;;;;;9.73;6.70;;;3.30;73.20;;;;;;4966274;28;114403;-79
2022/12/07 05:01:18;;;;;;;10.07;6.93;;;3.40;73.30;;;;;;4965706;28;115142;-79
2022/12/07 05:03:46;;;;;;;11.80;8.25;;;3.30;73.20;;;;;;4963202;28;114634;-79
2022/12/07 05:06:13;;;;;;;11.52;6.82;;;3.40;73.10;;;;;;4949366;28;114621;-79
2022/12/07 05:08:40;;;;;;;11.52;6.90;;;3.40;73.10;;;;;;4965429;28;114379;-79
2022/12/07 05:11:08;;;;;;;12.10;6.88;;;3.30;73.10;;;;;;4964774;28;115357;-78
2022/12/07 05:13:35;;;;;;;10.68;7.25;;;3.40;73.10;;;;;;4966142;28;114835;-79
2022/12/07 05:16:03;;;;;;;11.27;7.65;;;3.40;73.00;;;;;;4964834;28;114715;-80
2022/12/07 05:18:30;;;;;;;9.75;6.80;;;3.40;73.10;;;;;;4971590;28;114481;-78
2022/12/07 05:20:57;;;;;;;9.93;7.05;;;3.40;73.10;;;;;;4978489;28;116561;-79
2022/12/07 05:23:25;;;;;;;10.10;7.07;;;3.40;73.00;;;;;;4969408;28;114619;-80
2022/12/07 05:25:52;;;;;;;13.43;8.75;;;3.30;73.00;;;;;;4965567;28;114375;-78
2022/12/07 05:28:19;;;;;;;10.80;7.68;;;3.30;73.00;;;;;;4968825;28;114786;-79
2022/12/07 05:30:46;;;;;;;10.82;7.35;;;3.30;73.00;;;;;;4983557;28;115116;-79
2022/12/07 05:33:13;;;;;;;11.48;8.05;;;3.30;73.00;;;;;;4981384;28;114659;-79
2022/12/07 05:35:41;;;;;;;11.50;7.68;;;3.30;73.10;;;;;;4966262;28;114402;-79
2022/12/07 05:38:08;;;;;;;11.55;7.45;;;3.30;73.10;;;;;;4963946;28;114552;-78
2022/12/07 05:40:36;;;;;;;11.27;6.78;;;3.30;73.10;;;;;;4964700;28;115155;-79
2022/12/07 05:43:03;;;;;;;10.82;7.28;;;3.40;73.20;;;;;;4966230;28;115641;-79
2022/12/07 05:45:31;;;;;;;9.95;7.05;;;3.30;73.20;;;;;;4964816;28;114747;-79
2022/12/07 05:47:58;;;;;;;11.88;8.32;;;3.40;73.10;;;;;;4965018;28;116114;-79
2022/12/07 05:50:25;;;;;;;10.60;6.82;;;3.40;73.10;;;;;;4960432;28;115052;-79
2022/12/07 05:53:00;;;;;;;8.82;6.15;;;3.40;73.00;;;;;;4964122;28;115415;-79
2022/12/07 05:55:27;;;;;;;9.02;6.38;;;3.40;73.00;;;;;;4965424;28;114416;-80
2022/12/07 06:00:40;;;;;;;10.02;6.70;;;3.40;72.80;;;;;;4964138;28;115239;-78
2022/12/07 06:03:08;;;;;;;9.55;6.32;;;3.40;72.80;;;;;;4965579;28;115692;-79
2022/12/07 06:05:37;;;;;;;9.65;6.65;;;3.40;72.80;;;;;;4982257;28;114353;-80
2022/12/07 06:08:05;;;;;;;9.57;6.47;;;3.40;72.70;;;;;;4984516;28;115230;-79
2022/12/07 06:10:32;;;;;;;9.20;6.43;;;3.40;72.70;;;;;;4972988;28;115270;-79
2022/12/07 06:12:59;;;;;;;8.90;6.25;;;3.30;72.70;;;;;;4963904;28;114641;-80
2022/12/07 06:15:29;;;;;;;8.38;5.90;;;3.30;72.70;;;;;;4966796;28;114357;-79
2022/12/07 06:17:56;;;;;;;9.13;5.90;;;3.40;72.80;;;;;;4967879;28;114723;-79
2022/12/07 06:20:23;;;;;;;7.68;5.68;;;3.30;72.80;;;;;;4967296;28;116853;-79
2022/12/07 06:22:51;;;;;;;7.93;5.40;;;3.30;72.70;;;;;;4966158;28;114781;-79
2022/12/07 06:25:18;;;;;;;9.10;6.30;;;3.30;72.70;;;;;;4949758;28;114618;-79
2022/12/07 06:27:45;;;;;;;11.40;6.22;;;3.30;72.70;;;;;;4967004;28;114640;-79
2022/12/07 06:30:12;;;;;;;8.60;5.28;;;3.40;72.70;;;;;;4915969;28;118524;-79
2022/12/07 06:32:40;;;;;;;8.45;5.05;;;3.30;72.70;;;;;;4947038;28;119496;-79
2022/12/07 06:35:08;;;;;;;8.95;5.55;;;3.30;72.60;;;;;;4966951;28;114723;-79
2022/12/07 06:37:35;;;;;;;8.10;5.00;;;3.30;72.50;;;;;;4958365;28;115171;-79
2022/12/07 06:40:04;;;;;;;8.23;4.82;;;3.30;72.60;;;;;;4947258;28;116469;-80
2022/12/07 06:42:35;;;;;;;9.60;6.07;;;3.40;72.50;;;;;;4964716;28;114522;-81
2022/12/07 06:45:02;;;;;;;9.50;6.35;;;3.40;72.50;;;;;;4966549;28;114716;-82
2022/12/07 06:47:30;;;;;;;9.07;5.57;;;3.40;72.40;;;;;;4968577;28;114687;-78
2022/12/07 06:50:07;;;;;;;8.15;5.43;;;3.30;72.50;;;;;;4964276;28;115447;-78
2022/12/07 06:52:37;;;;;;;6.95;5.18;;;3.30;72.50;;;;;;4966173;28;114739;-79
2022/12/07 06:55:05;;;;;;;7.45;5.35;;;3.30;72.40;;;;;;4965554;28;114843;-79
2022/12/07 06:57:32;;;;;;;6.57;4.55;;;3.30;72.40;;;;;;4963765;28;114771;-79
2022/12/07 07:00:04;;;;;;;7.35;4.18;;;3.20;72.40;;;;;;4964936;28;115176;-78
2022/12/07 07:02:32;;;;;;;6.35;3.70;;;3.20;72.40;;;;;;4963112;28;117056;-78
2022/12/07 07:04:59;;;;;;;6.20;3.95;;;3.20;72.40;;;;;;4964061;28;115225;-79
2022/12/07 07:07:27;;;;;;;5.25;3.65;;;3.20;72.30;;;;;;4961306;28;114907;-79
2022/12/07 07:09:54;;;;;;;6.90;4.25;;;3.20;72.40;;;;;;4967762;28;115683;-78
2022/12/07 07:12:21;;;;;;;6.03;4.18;;;3.20;72.50;;;;;;4976051;28;116125;-78
2022/12/07 07:14:51;;;;;;;5.05;3.70;;;3.20;72.60;;;;;;4972580;28;114656;-78
2022/12/07 07:17:18;;;;;;;6.07;4.30;;;3.20;72.50;;;;;;4976543;28;114386;-78
2022/12/07 07:19:47;;;;;;;5.63;3.80;;;3.10;72.50;;;;;;4976826;28;115091;-80
2022/12/07 07:22:17;;;;;;;6.57;4.38;;;3.10;72.60;;;;;;4940988;28;114765;-79
2022/12/07 07:24:45;;;;;;;6.65;4.40;;;3.10;72.70;;;;;;4976605;28;114391;-79
2022/12/07 07:27:12;;;;;;;7.05;4.10;;;3.10;72.60;;;;;;4969012;28;116286;-80
2022/12/07 07:29:39;;;;;;;6.47;4.00;;;3.00;72.60;;;;;;4979131;28;115598;-79
2022/12/07 07:32:07;;;;;;;5.47;3.72;;;3.00;72.70;;;;;;4973211;28;114691;-79
2022/12/07 07:34:34;;;;;;;5.97;4.32;;;3.00;72.70;;;;;;4979902;28;117956;-79
2022/12/07 07:37:01;;;;;;;6.53;4.40;;;3.00;72.70;;;;;;4976181;28;114479;-78
2022/12/07 07:39:29;;;;;;;8.70;4.50;;;3.00;72.80;;;;;;4972152;28;115027;-79
2022/12/07 07:41:56;;;;;;;6.20;4.55;;;3.00;72.80;;;;;;4954070;28;116739;-78
2022/12/07 07:44:26;;;;;;;7.55;4.32;;;3.00;72.80;;;;;;4977758;28;114745;-79
2022/12/07 07:47:00;;;;;;;8.35;4.93;;;3.10;72.80;;;;;;4971420;28;114565;-80
2022/12/07 07:49:28;;;;;;;5.93;3.85;;;3.10;72.80;;;;;;4974250;28;115122;-79
2022/12/07 07:51:55;;;;;;;6.97;4.80;;;3.00;72.70;;;;;;4971988;28;114814;-80
2022/12/07 07:54:22;;;;;;;8.00;4.72;;;3.10;72.70;;;;;;4965917;28;115567;-79
2022/12/07 07:56:49;;;;;;;8.40;4.78;;;3.10;72.70;;;;;;4978016;28;114832;-80
2022/12/07 07:59:16;;;;;;;6.50;4.93;;;3.10;72.70;;;;;;4974797;28;114991;-80
2022/12/07 08:01:43;;;;;;;7.55;5.03;;;3.10;72.70;;;;;;4972587;28;114800;-80
2022/12/07 08:04:11;;;;;;;9.77;5.15;;;3.10;72.70;;;;;;4976336;28;114925;-81
2022/12/07 08:06:38;;;;;;;7.32;5.20;;;3.10;72.70;;;;;;4970402;28;115897;-80
2022/12/07 08:09:06;;;;;;;9.45;5.53;;;3.10;72.70;;;;;;4969018;28;118273;-79
2022/12/07 08:11:34;;;;;;;8.05;4.78;;;3.10;72.70;;;;;;4963023;28;114696;-80
2022/12/07 08:14:01;;;;;;;7.65;5.20;;;3.10;72.70;;;;;;4946619;28;118947;-79
2022/12/07 08:16:28;;;;;;;7.95;4.70;;;3.10;72.70;;;;;;4964147;28;114425;-79
2022/12/07 08:18:56;;;;;;;6.13;4.65;;;3.10;72.70;;;;;;4967412;28;115043;-79
2022/12/07 08:21:23;;;;;;;6.88;4.45;;;3.10;72.70;;;;;;4976966;28;114885;-80
2022/12/07 08:23:50;;;;;;;7.45;4.25;;;3.20;72.70;;;;;;4947875;28;114624;-80
2022/12/07 08:26:17;;;;;;;7.28;4.63;;;3.20;72.70;;;;;;4964143;28;115473;-81
2022/12/07 08:28:45;;;;;;;6.45;4.47;;;3.20;72.70;;;;;;4964025;28;116165;-81
2022/12/07 08:31:15;;;;;;;7.10;4.40;;;3.20;72.60;;;;;;4964590;28;116195;-78
2022/12/07 08:33:43;;;;;;;10.38;5.10;;;3.20;72.50;;;;;;4962391;28;114682;-79
2022/12/07 08:36:11;;;;;;;6.60;4.20;;;3.20;72.50;;;;;;4965483;28;114669;-79
2022/12/07 08:38:40;;;;;;;8.15;4.65;;;3.20;72.40;;;;;;4963372;28;117895;-79
2022/12/07 08:41:17;;;;;;;7.22;4.43;;;3.20;72.40;;;;;;4969104;28;114705;-79
2022/12/07 08:43:45;;;;;;;5.70;4.20;;;3.20;72.40;;;;;;4966243;28;114608;-80
2022/12/07 08:46:23;;;;;;;7.55;4.45;;;3.20;72.50;;;;;;4966965;28;114794;-80
2022/12/07 08:49:18;;;;;;;7.85;4.60;;;3.20;72.60;;;;;;4963049;28;115111;-80
2022/12/07 08:51:46;;;;;;;7.72;4.60;;;3.20;72.50;;;;;;4969257;28;115446;-79
2022/12/07 08:54:16;;;;;;;7.55;4.63;;;3.20;72.50;;;;;;4931758;28;114601;-78
2022/12/07 08:56:44;;;;;;;9.20;4.45;;;3.20;72.40;;;;;;4965800;28;114326;-79
2022/12/07 08:59:12;;;;;;;6.75;3.90;;;3.20;72.40;;;;;;4931916;28;114997;-80
2022/12/07 09:01:39;;;;;;;7.18;4.03;;;3.20;72.30;;;;;;4931721;28;116516;-79
2022/12/07 09:04:07;;;;;;;6.65;4.88;;;3.20;72.30;;;;;;4914583;28;115028;-79
2022/12/07 09:06:34;;;;;;;7.28;4.32;;;3.20;72.30;;;;;;4966947;28;116020;-80
2022/12/07 09:09:04;;;;;;;7.10;4.60;;;3.30;72.20;;;;;;4963198;28;115175;-81
2022/12/07 09:11:31;;;;;;;5.32;3.92;;;3.30;72.10;;;;;;4965577;28;114763;-80
2022/12/07 09:13:58;;;;;;;6.38;4.10;;;3.30;72.00;;;;;;4965087;28;114339;-79
2022/12/07 09:16:25;;;;;;;8.57;4.57;;;3.30;71.80;;;;;;4969724;28;114528;-79
2022/12/07 09:18:53;;;;;;;5.93;4.15;;;3.30;71.80;;;;;;4964585;28;114831;-79
2022/12/07 09:21:20;;;;;;;6.93;4.68;;;3.30;71.80;;;;;;4966950;28;115425;-79
2022/12/07 09:23:47;;;;;;;6.20;3.78;;;3.30;71.70;;;;;;4965566;28;114573;-79
2022/12/07 09:26:14;;;;;;;7.35;3.85;;;3.30;71.60;;;;;;4975884;28;114502;-79
2022/12/07 09:28:42;;;;;;;6.55;4.10;;;3.30;71.70;;;;;;4984656;28;115461;-79
2022/12/07 09:31:09;;;;;;;7.72;5.03;;;3.30;71.80;;;;;;4983099;28;114875;-78
2022/12/07 09:33:59;;;;;;;5.55;4.10;;;3.40;71.80;;;;;;4966883;28;114583;-79
2022/12/07 09:36:27;;;;;;;5.63;3.75;;;3.40;71.60;;;;;;4963713;28;114658;-79
2022/12/07 09:38:55;;;;;;;6.85;4.07;;;3.40;71.50;;;;;;4964056;28;115118;-79
2022/12/07 09:41:23;;;;;;;6.70;3.90;;;3.50;71.30;;;;;;4964259;28;114736;-78
2022/12/07 09:43:50;;;;;;;6.00;4.38;;;3.50;71.20;;;;;;4965143;28;114580;-78
2022/12/07 09:46:18;;;;;;;5.40;3.85;;;3.50;71.10;;;;;;4974655;28;116185;-80
2022/12/07 09:48:46;;;;;;;7.72;4.68;;;3.50;71.10;;;;;;4968912;28;115614;-79
2022/12/07 09:51:16;;;;;;;6.50;4.28;;;3.60;70.90;;;;;;4959566;28;115714;-79
2022/12/07 09:53:51;;;;;;;7.30;4.70;;;3.60;70.80;;;;;;4967389;28;115977;-80
2022/12/07 09:56:18;;;;;;;5.70;3.65;;;3.60;70.80;;;;;;4965358;28;115342;-80
2022/12/07 09:58:45;;;;;;;6.95;4.13;;;3.60;70.70;;;;;;4967770;28;117196;-80
2022/12/07 10:01:16;;;;;;;6.75;4.32;;;3.60;70.60;;;;;;4934483;28;116510;-79
2022/12/07 10:03:54;;;;;;;5.82;4.15;;;3.70;70.50;;;;;;4968871;28;114369;-80
2022/12/07 10:06:21;;;;;;;6.50;4.45;;;3.70;70.30;;;;;;4965771;28;114372;-80
2022/12/07 10:08:48;;;;;;;7.88;4.38;;;3.70;70.20;;;;;;4964126;28;115143;-80
2022/12/07 10:11:15;;;;;;;6.68;4.28;;;3.80;70.00;;;;;;4964640;28;114793;-79
2022/12/07 10:13:53;;;;;;;5.22;4.10;;;3.80;69.90;;;;;;4965200;28;114503;-80
2022/12/07 10:16:24;;;;;;;6.05;4.20;;;3.80;69.70;;;;;;4967791;28;114662;-79
2022/12/07 10:18:51;;;;;;;7.20;4.38;;;3.90;69.90;;;;;;4967634;28;114973;-80
2022/12/07 10:21:20;;;;;;;6.82;3.90;;;3.90;69.80;;;;;;4967690;28;114625;-79
2022/12/07 10:24:19;;;;;;;6.88;3.78;;;4.00;69.80;;;;;;4918997;28;114825;-80
2022/12/07 10:26:46;;;;;;;5.93;4.22;;;4.10;69.40;;;;;;4966520;28;117413;-79
2022/12/07 10:29:37;;;;;;;5.93;4.38;;;4.10;69.50;;;;;;4971081;28;115084;-80
2022/12/07 10:32:16;;;;;;;5.90;4.30;;;4.20;69.20;;;;;;4946876;28;114707;-79
2022/12/07 10:34:43;;;;;;;5.72;4.03;;;4.20;69.10;;;;;;4966136;28;117421;-79
2022/12/07 10:37:25;;;;;;;5.00;3.47;;;4.30;69.20;;;;;;4964014;28;114761;-79
2022/12/07 10:39:56;;;;;;;6.43;3.78;;;4.30;68.80;;;;;;4962420;28;115093;-80
2022/12/07 10:42:28;;;;;;;5.32;3.67;;;4.30;68.40;;;;;;4971755;28;116022;-79
2022/12/07 10:45:09;;;;;;;4.90;3.17;;;4.30;68.30;;;;;;4984726;28;114435;-80
2022/12/07 10:47:51;;;;;;;6.05;4.05;;;4.20;68.00;;;;;;4983712;28;114395;-80
2022/12/07 10:50:46;;;;;;;5.30;3.60;;;4.20;68.20;;;;;;4968514;28;115926;-80
2022/12/07 10:53:47;;;;;;;;;;;4.20;68.10;;;;;;4962961;28;114901;-80
2022/12/07 10:56:46;;;;;;;6.60;3.40;;;4.10;68.80;;;;;;4964233;28;114750;-80
2022/12/07 10:59:54;;;;;;;5.00;3.80;;;4.20;68.50;;;;;;4963102;28;117988;-79
2022/12/07 11:02:59;;;;;;;4.38;3.00;;;4.10;68.50;;;;;;4967261;28;115379;-79
2022/12/07 11:05:38;;;;;;;4.72;3.15;;;4.20;68.20;;;;;;4966835;28;114778;-79
2022/12/07 11:08:56;;;;;;;6.80;3.90;;;4.10;68.40;;;;;;4968164;28;114296;-79
2022/12/07 11:11:43;;;;;;;6.63;3.90;;;4.10;68.30;;;;;;4967994;28;114905;-80
2022/12/07 11:14:39;;;;;;;5.60;3.72;;;4.00;68.60;;;;;;4963543;28;115221;-80
2022/12/07 11:17:32;;;;;;;6.03;3.78;;;4.00;68.50;;;;;;4965272;28;115771;-80
2022/12/07 11:21:00;;;;;;;6.57;4.20;;;3.90;68.60;;;;;;4968147;28;114529;-79
2022/12/07 11:24:08;;;;;;;8.13;5.03;;;3.90;68.90;;;;;;4953765;28;114576;-81
2022/12/07 11:27:05;;;;;;;7.80;4.40;;;3.90;69.10;;;;;;4947621;28;119634;-79
2022/12/07 11:29:58;;;;;;;7.18;4.43;;;3.90;69.30;;;;;;4966334;28;114766;-79
2022/12/07 11:32:59;;;;;;;8.35;4.72;;;3.90;69.40;;;;;;4964357;28;114679;-79
2022/12/07 11:36:24;;;;;;;7.53;4.63;;;4.00;69.40;;;;;;4949818;28;114529;-81
2022/12/07 11:38:57;;;;;;;5.97;4.15;;;4.00;69.30;;;;;;4963715;28;115099;-80
2022/12/07 11:41:29;;;;;;;7.50;4.57;;;4.00;68.80;;;;;;4977567;28;115801;-80
2022/12/07 11:44:53;;;;;;;7.28;4.95;;;4.00;68.60;;;;;;4946900;28;114459;-80
2022/12/07 11:47:30;;;;;;;8.43;5.30;;;4.10;68.60;;;;;;4955946;28;115398;-80
2022/12/07 11:50:29;;;;;;;8.48;5.25;;;4.00;68.50;;;;;;4963769;28;115659;-77
2022/12/07 11:52:59;;;;;;;7.68;5.10;;;4.10;68.50;;;;;;4951715;28;116761;-79
2022/12/07 11:55:32;;;;;;;8.30;5.57;;;4.10;68.50;;;;;;4964538;28;114688;-80
2022/12/07 11:58:53;;;;;;;9.27;5.70;;;4.10;68.50;;;;;;4945834;28;114493;-81
2022/12/07 12:01:55;;;;;;;8.73;5.68;;;4.10;68.00;;;;;;4963137;28;115147;-80
2022/12/07 12:04:32;;;;;;;7.15;5.20;;;4.10;67.90;;;;;;4961986;28;115391;-81
2022/12/07 12:07:00;;;;;;;8.52;5.45;;;4.10;67.70;;;;;;4963725;28;114737;-80
2022/12/07 12:10:02;;;;;;;7.50;5.25;;;4.10;67.80;;;;;;4963801;28;114679;-80
2022/12/07 12:13:03;;;;;;;6.90;4.78;;;4.10;67.40;;;;;;4946419;28;115081;-80
2022/12/07 12:16:42;;;;;;;7.22;5.15;;;4.10;67.30;;;;;;4970033;28;114762;-80
2022/12/07 12:19:44;;;;;;;8.43;5.28;;;4.10;67.30;;;;;;4955271;28;114472;-80
2022/12/07 12:22:19;;;;;;;7.22;5.22;;;4.00;67.40;;;;;;4973879;28;114582;-80
2022/12/07 12:24:51;;;;;;;7.55;5.40;;;4.10;67.40;;;;;;4932793;28;115448;-81
2022/12/07 12:27:31;;;;;;;6.32;4.85;;;4.10;67.50;;;;;;4973114;28;114695;-80
2022/12/07 12:30:01;;;;;;;6.57;4.60;;;4.10;67.20;;;;;;4939784;28;116057;-80
2022/12/07 12:32:42;;;;;;;8.02;5.35;;;4.20;67.10;;;;;;4957912;28;114472;-80
2022/12/07 12:35:30;;;;;;;6.85;4.80;;;4.20;66.90;;;;;;5001408;28;116525;-80
2022/12/07 12:38:44;;;;;;;8.60;5.60;;;4.30;66.90;;;;;;4954618;28;114700;-80
2022/12/07 12:44:19;;;;;;;9.32;5.78;;;4.20;66.60;;;;;;4962033;28;114788;-81
2022/12/07 12:47:01;;;;;;;10.07;6.50;;;4.20;66.50;;;;;;4962655;28;115205;-78
2022/12/07 12:49:28;;;;;;;8.88;6.25;;;4.20;66.30;;;;;;4944137;28;114989;-79
2022/12/07 12:52:22;;;;;;;9.25;5.70;;;4.20;66.40;;;;;;4969221;28;114540;-79
2022/12/07 12:55:08;;;;;;;8.90;6.47;;;4.20;66.30;;;;;;4961738;28;114625;-79
2022/12/07 12:57:35;;;;;;;10.32;6.93;;;4.20;66.40;;;;;;4964528;28;114315;-79
2022/12/07 13:00:17;;;;;;;11.27;6.95;;;4.20;66.60;;;;;;4947805;28;115954;-79
2022/12/07 13:02:55;;;;;;;9.73;6.57;;;4.20;66.30;;;;;;4948096;28;114623;-79
2022/12/07 13:05:29;;;;;;;9.40;6.60;;;4.20;66.10;;;;;;4948464;28;114532;-77
2022/12/07 13:08:19;;;;;;;11.05;6.60;;;4.20;66.20;;;;;;4943019;28;115749;-78
2022/12/07 13:10:49;;;;;;;9.32;6.50;;;4.20;66.20;;;;;;4933285;28;118064;-78
2022/12/07 13:13:19;;;;;;;10.00;7.18;;;4.20;66.30;;;;;;4968106;28;114699;-78
2022/12/07 13:15:51;;;;;;;10.70;7.15;;;4.20;66.30;;;;;;4966716;28;114646;-78
2022/12/07 13:18:32;;;;;;;9.63;6.82;;;4.20;66.20;;;;;;4945996;28;117390;-80
2022/12/07 13:21:08;;;;;;;9.32;6.80;;;4.20;66.00;;;;;;4963330;28;114996;-80
2022/12/07 13:23:49;;;;;;;9.38;6.57;;;4.20;65.80;;;;;;4968186;28;114434;-82
2022/12/07 13:26:29;;;;;;;9.75;7.07;;;4.30;66.00;;;;;;4963108;28;114578;-81
2022/12/07 13:29:23;;;;;;;8.13;6.22;;;4.30;65.80;;;;;;4968980;28;115303;-80